sensor_id;sensor_type;location;lat;lon;timestamp;P1;durP1;ratioP1;P2;durP2;ratioP2
2049;SDS011;8478;49.208;8.806;2024-01-11T00:01:26;23.50;;;21.00;;
2049;SDS011;8478;49.208;8.806;2024-01-11T00:03:52;23.57;;;21.10;;
2049;SDS011;8478;49.208;8.806;2024-01-11T00:06:18;23.43;;;21.13;;
2049;SDS011;8478;49.208;8.806;2024-01-11T00:08:43;22.30;;;20.27;;
2049;SDS011;8478;49.208;8.806;2024-01-11T00:11:10;22.90;;;20.60;;
2049;SDS011;8478;49.208;8.806;2024-01-11T00:13:35;22.43;;;20.23;;
2049;SDS011;8478;49.208;8.806;2024-01-11T00:16:01;22.50;;;20.20;;
2049;SDS011;8478;49.208;8.806;2024-01-11T00:18:27;21.97;;;19.93;;
2049;SDS011;8478;49.208;8.806;2024-01-11T00:20:53;23.90;;;21.50;;
2049;SDS011;8478;49.208;8.806;2024-01-11T00:23:19;23.07;;;20.63;;
2049;SDS011;8478;49.208;8.806;2024-01-11T00:25:44;22.63;;;20.50;;
2049;SDS011;8478;49.208;8.806;2024-01-11T00:28:10;21.63;;;19.53;;
2049;SDS011;8478;49.208;8.806;2024-01-11T00:30:35;23.80;;;20.63;;
2049;SDS011;8478;49.208;8.806;2024-01-11T00:33:01;23.20;;;20.70;;
2049;SDS011;8478;49.208;8.806;2024-01-11T00:35:27;23.70;;;21.30;;
2049;SDS011;8478;49.208;8.806;2024-01-11T00:37:53;21.53;;;19.33;;
2049;SDS011;8478;49.208;8.806;2024-01-11T00:40:19;23.50;;;21.20;;
2049;SDS011;8478;49.208;8.806;2024-01-11T00:42:44;23.77;;;21.53;;
2049;SDS011;8478;49.208;8.806;2024-01-11T00:45:10;21.40;;;19.40;;
2049;SDS011;8478;49.208;8.806;2024-01-11T00:47:36;24.07;;;21.87;;
2049;SDS011;8478;49.208;8.806;2024-01-11T00:50:01;23.30;;;20.93;;
2049;SDS011;8478;49.208;8.806;2024-01-11T00:52:27;21.00;;;19.10;;
2049;SDS011;8478;49.208;8.806;2024-01-11T00:54:52;22.53;;;20.50;;
2049;SDS011;8478;49.208;8.806;2024-01-11T00:57:18;21.23;;;19.13;;
2049;SDS011;8478;49.208;8.806;2024-01-11T00:59:44;21.43;;;19.33;;
2049;SDS011;8478;49.208;8.806;2024-01-11T01:02:09;22.80;;;20.40;;
2049;SDS011;8478;49.208;8.806;2024-01-11T01:04:38;21.20;;;19.03;;
2049;SDS011;8478;49.208;8.806;2024-01-11T01:07:04;21.90;;;19.80;;
2049;SDS011;8478;49.208;8.806;2024-01-11T01:09:31;21.37;;;19.30;;
2049;SDS011;8478;49.208;8.806;2024-01-11T01:11:56;22.27;;;20.07;;
2049;SDS011;8478;49.208;8.806;2024-01-11T01:14:22;22.37;;;19.73;;
2049;SDS011;8478;49.208;8.806;2024-01-11T01:16:48;22.63;;;20.33;;
2049;SDS011;8478;49.208;8.806;2024-01-11T01:19:13;22.50;;;20.23;;
2049;SDS011;8478;49.208;8.806;2024-01-11T01:21:40;24.43;;;21.00;;
2049;SDS011;8478;49.208;8.806;2024-01-11T01:24:06;22.17;;;19.53;;
2049;SDS011;8478;49.208;8.806;2024-01-11T01:26:31;21.70;;;19.70;;
2049;SDS011;8478;49.208;8.806;2024-01-11T01:28:57;22.23;;;20.07;;
2049;SDS011;8478;49.208;8.806;2024-01-11T01:31:23;21.60;;;19.50;;
2049;SDS011;8478;49.208;8.806;2024-01-11T01:33:48;21.87;;;19.70;;
2049;SDS011;8478;49.208;8.806;2024-01-11T01:36:14;21.30;;;19.30;;
2049;SDS011;8478;49.208;8.806;2024-01-11T01:38:39;21.93;;;19.70;;
2049;SDS011;8478;49.208;8.806;2024-01-11T01:41:05;23.73;;;21.40;;
2049;SDS011;8478;49.208;8.806;2024-01-11T01:43:32;22.27;;;20.00;;
2049;SDS011;8478;49.208;8.806;2024-01-11T01:45:57;23.00;;;20.70;;
2049;SDS011;8478;49.208;8.806;2024-01-11T01:48:23;23.00;;;20.53;;
2049;SDS011;8478;49.208;8.806;2024-01-11T01:50:50;22.33;;;20.23;;
2049;SDS011;8478;49.208;8.806;2024-01-11T01:53:24;23.03;;;20.70;;
2049;SDS011;8478;49.208;8.806;2024-01-11T01:55:53;21.47;;;19.57;;
2049;SDS011;8478;49.208;8.806;2024-01-11T01:58:19;22.27;;;19.97;;
2049;SDS011;8478;49.208;8.806;2024-01-11T02:00:47;22.03;;;19.93;;
2049;SDS011;8478;49.208;8.806;2024-01-11T02:03:15;22.73;;;20.60;;
2049;SDS011;8478;49.208;8.806;2024-01-11T02:05:41;22.70;;;19.40;;
2049;SDS011;8478;49.208;8.806;2024-01-11T02:08:08;22.10;;;19.70;;
2049;SDS011;8478;49.208;8.806;2024-01-11T02:10:37;22.70;;;20.40;;
2049;SDS011;8478;49.208;8.806;2024-01-11T02:13:04;23.57;;;21.00;;
2049;SDS011;8478;49.208;8.806;2024-01-11T02:15:30;22.97;;;20.67;;
2049;SDS011;8478;49.208;8.806;2024-01-11T02:17:55;23.37;;;21.17;;
2049;SDS011;8478;49.208;8.806;2024-01-11T02:20:21;21.43;;;19.30;;
2049;SDS011;8478;49.208;8.806;2024-01-11T02:22:47;23.70;;;20.93;;
2049;SDS011;8478;49.208;8.806;2024-01-11T02:25:21;24.33;;;21.83;;
2049;SDS011;8478;49.208;8.806;2024-01-11T02:27:50;22.80;;;20.53;;
2049;SDS011;8478;49.208;8.806;2024-01-11T02:30:16;22.43;;;20.03;;
2049;SDS011;8478;49.208;8.806;2024-01-11T02:32:43;22.63;;;20.57;;
2049;SDS011;8478;49.208;8.806;2024-01-11T02:35:11;22.17;;;20.00;;
2049;SDS011;8478;49.208;8.806;2024-01-11T02:37:38;24.23;;;20.07;;
2049;SDS011;8478;49.208;8.806;2024-01-11T02:40:07;24.57;;;22.27;;
2049;SDS011;8478;49.208;8.806;2024-01-11T02:42:34;22.93;;;20.63;;
2049;SDS011;8478;49.208;8.806;2024-01-11T02:45:00;22.30;;;20.30;;
2049;SDS011;8478;49.208;8.806;2024-01-11T02:47:28;22.60;;;20.30;;
2049;SDS011;8478;49.208;8.806;2024-01-11T02:49:54;23.67;;;21.10;;
2049;SDS011;8478;49.208;8.806;2024-01-11T02:52:20;22.77;;;20.77;;
2049;SDS011;8478;49.208;8.806;2024-01-11T02:54:45;23.67;;;20.57;;
2049;SDS011;8478;49.208;8.806;2024-01-11T02:57:11;21.73;;;19.80;;
2049;SDS011;8478;49.208;8.806;2024-01-11T02:59:37;20.77;;;18.63;;
2049;SDS011;8478;49.208;8.806;2024-01-11T03:02:03;23.93;;;21.60;;
2049;SDS011;8478;49.208;8.806;2024-01-11T03:04:29;21.83;;;19.43;;
2049;SDS011;8478;49.208;8.806;2024-01-11T03:06:54;24.20;;;21.90;;
2049;SDS011;8478;49.208;8.806;2024-01-11T03:09:20;22.27;;;19.97;;
2049;SDS011;8478;49.208;8.806;2024-01-11T03:11:46;21.20;;;19.03;;
2049;SDS011;8478;49.208;8.806;2024-01-11T03:14:12;21.27;;;18.90;;
2049;SDS011;8478;49.208;8.806;2024-01-11T03:16:37;22.70;;;20.43;;
2049;SDS011;8478;49.208;8.806;2024-01-11T03:19:05;23.17;;;20.67;;
2049;SDS011;8478;49.208;8.806;2024-01-11T03:21:31;21.50;;;19.40;;
2049;SDS011;8478;49.208;8.806;2024-01-11T03:23:56;23.13;;;20.67;;
2049;SDS011;8478;49.208;8.806;2024-01-11T03:26:22;22.87;;;20.67;;
2049;SDS011;8478;49.208;8.806;2024-01-11T03:28:48;21.90;;;19.73;;
2049;SDS011;8478;49.208;8.806;2024-01-11T03:31:14;20.97;;;18.87;;
2049;SDS011;8478;49.208;8.806;2024-01-11T03:33:40;21.53;;;19.37;;
2049;SDS011;8478;49.208;8.806;2024-01-11T03:36:09;21.60;;;19.40;;
2049;SDS011;8478;49.208;8.806;2024-01-11T03:38:35;22.37;;;20.27;;
2049;SDS011;8478;49.208;8.806;2024-01-11T03:41:01;21.10;;;19.00;;
2049;SDS011;8478;49.208;8.806;2024-01-11T03:43:27;22.13;;;19.97;;
2049;SDS011;8478;49.208;8.806;2024-01-11T03:45:53;22.50;;;20.30;;
2049;SDS011;8478;49.208;8.806;2024-01-11T03:48:19;22.80;;;20.60;;
2049;SDS011;8478;49.208;8.806;2024-01-11T03:50:44;22.87;;;20.67;;
2049;SDS011;8478;49.208;8.806;2024-01-11T03:53:10;22.13;;;19.83;;
2049;SDS011;8478;49.208;8.806;2024-01-11T03:55:35;22.80;;;20.70;;
2049;SDS011;8478;49.208;8.806;2024-01-11T03:58:01;21.90;;;19.13;;
2049;SDS011;8478;49.208;8.806;2024-01-11T04:00:27;23.90;;;21.50;;
2049;SDS011;8478;49.208;8.806;2024-01-11T04:02:52;24.60;;;22.20;;
2049;SDS011;8478;49.208;8.806;2024-01-11T04:05:18;23.97;;;21.53;;
2049;SDS011;8478;49.208;8.806;2024-01-11T04:07:44;23.00;;;20.70;;
2049;SDS011;8478;49.208;8.806;2024-01-11T04:10:09;23.50;;;21.30;;
2049;SDS011;8478;49.208;8.806;2024-01-11T04:12:35;21.77;;;19.77;;
2049;SDS011;8478;49.208;8.806;2024-01-11T04:15:02;23.27;;;20.97;;
2049;SDS011;8478;49.208;8.806;2024-01-11T04:17:28;21.80;;;19.70;;
2049;SDS011;8478;49.208;8.806;2024-01-11T04:19:54;23.73;;;21.43;;
2049;SDS011;8478;49.208;8.806;2024-01-11T04:22:19;23.20;;;21.17;;
2049;SDS011;8478;49.208;8.806;2024-01-11T04:24:45;23.43;;;21.20;;
2049;SDS011;8478;49.208;8.806;2024-01-11T04:27:11;22.93;;;20.67;;
2049;SDS011;8478;49.208;8.806;2024-01-11T04:29:37;23.13;;;20.87;;
2049;SDS011;8478;49.208;8.806;2024-01-11T04:32:02;24.50;;;22.00;;
2049;SDS011;8478;49.208;8.806;2024-01-11T04:34:28;22.93;;;20.80;;
2049;SDS011;8478;49.208;8.806;2024-01-11T04:36:54;24.83;;;22.23;;
2049;SDS011;8478;49.208;8.806;2024-01-11T04:39:19;25.70;;;23.40;;
2049;SDS011;8478;49.208;8.806;2024-01-11T04:41:45;25.17;;;22.47;;
2049;SDS011;8478;49.208;8.806;2024-01-11T04:44:11;29.10;;;26.20;;
2049;SDS011;8478;49.208;8.806;2024-01-11T04:46:36;33.03;;;29.73;;
2049;SDS011;8478;49.208;8.806;2024-01-11T04:49:02;35.70;;;31.80;;
2049;SDS011;8478;49.208;8.806;2024-01-11T04:51:28;31.73;;;28.53;;
2049;SDS011;8478;49.208;8.806;2024-01-11T04:53:53;30.93;;;27.90;;
2049;SDS011;8478;49.208;8.806;2024-01-11T04:56:19;28.30;;;25.40;;
2049;SDS011;8478;49.208;8.806;2024-01-11T04:58:45;26.60;;;24.17;;
2049;SDS011;8478;49.208;8.806;2024-01-11T05:01:12;27.03;;;24.13;;
2049;SDS011;8478;49.208;8.806;2024-01-11T05:03:38;28.73;;;25.87;;
2049;SDS011;8478;49.208;8.806;2024-01-11T05:06:04;26.93;;;23.50;;
2049;SDS011;8478;49.208;8.806;2024-01-11T05:08:30;25.43;;;22.97;;
2049;SDS011;8478;49.208;8.806;2024-01-11T05:10:56;26.23;;;23.83;;
2049;SDS011;8478;49.208;8.806;2024-01-11T05:13:22;23.43;;;20.93;;
2049;SDS011;8478;49.208;8.806;2024-01-11T05:15:47;24.00;;;21.70;;
2049;SDS011;8478;49.208;8.806;2024-01-11T05:18:13;24.40;;;22.03;;
2049;SDS011;8478;49.208;8.806;2024-01-11T05:20:39;24.90;;;22.60;;
2049;SDS011;8478;49.208;8.806;2024-01-11T05:23:05;25.37;;;22.80;;
2049;SDS011;8478;49.208;8.806;2024-01-11T05:25:31;25.40;;;21.50;;
2049;SDS011;8478;49.208;8.806;2024-01-11T05:28:00;25.07;;;22.37;;
2049;SDS011;8478;49.208;8.806;2024-01-11T05:30:26;22.30;;;20.20;;
2049;SDS011;8478;49.208;8.806;2024-01-11T05:32:53;23.83;;;21.30;;
2049;SDS011;8478;49.208;8.806;2024-01-11T05:35:19;23.30;;;20.87;;
2049;SDS011;8478;49.208;8.806;2024-01-11T05:37:44;22.07;;;19.97;;
2049;SDS011;8478;49.208;8.806;2024-01-11T05:40:10;22.70;;;20.50;;
2049;SDS011;8478;49.208;8.806;2024-01-11T05:42:36;24.27;;;21.67;;
2049;SDS011;8478;49.208;8.806;2024-01-11T05:45:04;24.93;;;21.90;;
2049;SDS011;8478;49.208;8.806;2024-01-11T05:47:30;22.57;;;20.33;;
2049;SDS011;8478;49.208;8.806;2024-01-11T05:49:55;24.97;;;22.43;;
2049;SDS011;8478;49.208;8.806;2024-01-11T05:52:21;22.43;;;20.33;;
2049;SDS011;8478;49.208;8.806;2024-01-11T05:54:47;22.40;;;20.00;;
2049;SDS011;8478;49.208;8.806;2024-01-11T05:57:13;23.37;;;21.17;;
2049;SDS011;8478;49.208;8.806;2024-01-11T05:59:43;24.10;;;21.67;;
2049;SDS011;8478;49.208;8.806;2024-01-11T06:02:10;23.47;;;21.27;;
2049;SDS011;8478;49.208;8.806;2024-01-11T06:04:36;23.47;;;21.07;;
2049;SDS011;8478;49.208;8.806;2024-01-11T06:07:01;21.70;;;19.60;;
2049;SDS011;8478;49.208;8.806;2024-01-11T06:09:27;22.10;;;19.80;;
2049;SDS011;8478;49.208;8.806;2024-01-11T06:11:53;21.83;;;19.60;;
2049;SDS011;8478;49.208;8.806;2024-01-11T06:14:18;21.97;;;19.67;;
2049;SDS011;8478;49.208;8.806;2024-01-11T06:16:44;23.07;;;20.80;;
2049;SDS011;8478;49.208;8.806;2024-01-11T06:19:10;22.67;;;20.37;;
2049;SDS011;8478;49.208;8.806;2024-01-11T06:21:36;22.67;;;20.50;;
2049;SDS011;8478;49.208;8.806;2024-01-11T06:24:01;22.90;;;20.80;;
2049;SDS011;8478;49.208;8.806;2024-01-11T06:26:28;24.40;;;21.83;;
2049;SDS011;8478;49.208;8.806;2024-01-11T06:28:54;21.47;;;19.37;;
2049;SDS011;8478;49.208;8.806;2024-01-11T06:31:20;22.80;;;20.53;;
2049;SDS011;8478;49.208;8.806;2024-01-11T06:33:45;22.63;;;20.33;;
2049;SDS011;8478;49.208;8.806;2024-01-11T06:36:11;22.87;;;20.73;;
2049;SDS011;8478;49.208;8.806;2024-01-11T06:38:37;23.60;;;20.60;;
2049;SDS011;8478;49.208;8.806;2024-01-11T06:41:03;22.87;;;20.53;;
2049;SDS011;8478;49.208;8.806;2024-01-11T06:43:28;24.27;;;21.73;;
2049;SDS011;8478;49.208;8.806;2024-01-11T06:45:54;27.17;;;24.77;;
2049;SDS011;8478;49.208;8.806;2024-01-11T06:48:19;26.33;;;23.83;;
2049;SDS011;8478;49.208;8.806;2024-01-11T06:50:45;24.37;;;22.13;;
2049;SDS011;8478;49.208;8.806;2024-01-11T06:53:11;24.37;;;22.00;;
2049;SDS011;8478;49.208;8.806;2024-01-11T06:55:36;26.67;;;24.40;;
2049;SDS011;8478;49.208;8.806;2024-01-11T06:58:02;26.13;;;23.47;;
2049;SDS011;8478;49.208;8.806;2024-01-11T07:00:28;25.70;;;23.03;;
2049;SDS011;8478;49.208;8.806;2024-01-11T07:02:54;24.70;;;22.20;;
2049;SDS011;8478;49.208;8.806;2024-01-11T07:05:20;23.93;;;21.53;;
2049;SDS011;8478;49.208;8.806;2024-01-11T07:07:46;26.10;;;23.60;;
2049;SDS011;8478;49.208;8.806;2024-01-11T07:10:11;25.57;;;22.87;;
2049;SDS011;8478;49.208;8.806;2024-01-11T07:12:37;25.40;;;22.93;;
2049;SDS011;8478;49.208;8.806;2024-01-11T07:15:05;26.20;;;23.63;;
2049;SDS011;8478;49.208;8.806;2024-01-11T07:17:33;26.97;;;24.17;;
2049;SDS011;8478;49.208;8.806;2024-01-11T07:19:58;25.57;;;23.27;;
2049;SDS011;8478;49.208;8.806;2024-01-11T07:22:24;26.43;;;23.57;;
2049;SDS011;8478;49.208;8.806;2024-01-11T07:24:50;25.70;;;23.00;;
2049;SDS011;8478;49.208;8.806;2024-01-11T07:27:16;25.00;;;22.40;;
2049;SDS011;8478;49.208;8.806;2024-01-11T07:29:42;24.17;;;21.67;;
2049;SDS011;8478;49.208;8.806;2024-01-11T07:32:07;25.83;;;23.23;;
2049;SDS011;8478;49.208;8.806;2024-01-11T07:34:33;28.27;;;25.70;;
2049;SDS011;8478;49.208;8.806;2024-01-11T07:36:58;26.80;;;24.27;;
2049;SDS011;8478;49.208;8.806;2024-01-11T07:39:24;26.80;;;24.20;;
2049;SDS011;8478;49.208;8.806;2024-01-11T07:41:50;25.83;;;23.40;;
2049;SDS011;8478;49.208;8.806;2024-01-11T07:44:16;25.10;;;22.70;;
2049;SDS011;8478;49.208;8.806;2024-01-11T07:46:42;25.07;;;22.57;;
2049;SDS011;8478;49.208;8.806;2024-01-11T07:49:08;26.43;;;23.83;;
2049;SDS011;8478;49.208;8.806;2024-01-11T07:51:35;25.57;;;22.97;;
2049;SDS011;8478;49.208;8.806;2024-01-11T07:54:00;24.63;;;22.43;;
2049;SDS011;8478;49.208;8.806;2024-01-11T07:56:27;24.77;;;22.07;;
2049;SDS011;8478;49.208;8.806;2024-01-11T07:58:53;23.90;;;21.40;;
2049;SDS011;8478;49.208;8.806;2024-01-11T08:01:19;23.97;;;21.73;;
2049;SDS011;8478;49.208;8.806;2024-01-11T08:03:45;25.50;;;23.13;;
2049;SDS011;8478;49.208;8.806;2024-01-11T08:06:11;25.77;;;23.07;;
2049;SDS011;8478;49.208;8.806;2024-01-11T08:08:39;26.67;;;24.10;;
2049;SDS011;8478;49.208;8.806;2024-01-11T08:11:06;25.33;;;22.83;;
2049;SDS011;8478;49.208;8.806;2024-01-11T08:13:33;24.80;;;22.50;;
2049;SDS011;8478;49.208;8.806;2024-01-11T08:16:00;24.27;;;21.93;;
2049;SDS011;8478;49.208;8.806;2024-01-11T08:18:28;27.10;;;24.60;;
2049;SDS011;8478;49.208;8.806;2024-01-11T08:20:55;24.10;;;21.57;;
2049;SDS011;8478;49.208;8.806;2024-01-11T08:23:21;24.87;;;22.57;;
2049;SDS011;8478;49.208;8.806;2024-01-11T08:25:47;26.07;;;23.57;;
2049;SDS011;8478;49.208;8.806;2024-01-11T08:28:12;24.37;;;21.87;;
2049;SDS011;8478;49.208;8.806;2024-01-11T08:30:38;27.93;;;22.60;;
2049;SDS011;8478;49.208;8.806;2024-01-11T08:33:04;26.53;;;23.77;;
2049;SDS011;8478;49.208;8.806;2024-01-11T08:35:29;24.10;;;21.87;;
2049;SDS011;8478;49.208;8.806;2024-01-11T08:37:57;25.17;;;22.47;;
2049;SDS011;8478;49.208;8.806;2024-01-11T08:40:23;25.00;;;22.47;;
2049;SDS011;8478;49.208;8.806;2024-01-11T08:42:50;23.53;;;21.40;;
2049;SDS011;8478;49.208;8.806;2024-01-11T08:45:16;25.07;;;21.73;;
2049;SDS011;8478;49.208;8.806;2024-01-11T08:47:45;25.93;;;23.40;;
2049;SDS011;8478;49.208;8.806;2024-01-11T08:50:15;26.07;;;22.23;;
2049;SDS011;8478;49.208;8.806;2024-01-11T08:52:41;26.60;;;24.07;;
2049;SDS011;8478;49.208;8.806;2024-01-11T08:55:07;25.83;;;23.20;;
2049;SDS011;8478;49.208;8.806;2024-01-11T08:57:33;27.93;;;25.10;;
2049;SDS011;8478;49.208;8.806;2024-01-11T09:00:01;27.47;;;24.57;;
2049;SDS011;8478;49.208;8.806;2024-01-11T09:02:29;26.40;;;23.87;;
2049;SDS011;8478;49.208;8.806;2024-01-11T09:04:54;30.23;;;26.70;;
2049;SDS011;8478;49.208;8.806;2024-01-11T09:07:20;27.17;;;24.27;;
2049;SDS011;8478;49.208;8.806;2024-01-11T09:09:46;27.40;;;24.70;;
2049;SDS011;8478;49.208;8.806;2024-01-11T09:12:11;29.67;;;26.43;;
2049;SDS011;8478;49.208;8.806;2024-01-11T09:14:37;29.10;;;26.10;;
2049;SDS011;8478;49.208;8.806;2024-01-11T09:17:04;31.53;;;28.40;;
2049;SDS011;8478;49.208;8.806;2024-01-11T09:19:31;32.33;;;29.10;;
2049;SDS011;8478;49.208;8.806;2024-01-11T09:21:59;33.67;;;30.13;;
2049;SDS011;8478;49.208;8.806;2024-01-11T09:24:25;36.50;;;33.00;;
2049;SDS011;8478;49.208;8.806;2024-01-11T09:26:50;34.33;;;30.80;;
2049;SDS011;8478;49.208;8.806;2024-01-11T09:29:16;37.30;;;33.67;;
2049;SDS011;8478;49.208;8.806;2024-01-11T09:31:42;41.33;;;37.03;;
2049;SDS011;8478;49.208;8.806;2024-01-11T09:34:07;39.97;;;35.60;;
2049;SDS011;8478;49.208;8.806;2024-01-11T09:36:33;38.90;;;34.67;;
2049;SDS011;8478;49.208;8.806;2024-01-11T09:38:59;36.23;;;32.47;;
2049;SDS011;8478;49.208;8.806;2024-01-11T09:41:25;36.17;;;32.33;;
2049;SDS011;8478;49.208;8.806;2024-01-11T09:43:52;37.17;;;33.27;;
2049;SDS011;8478;49.208;8.806;2024-01-11T09:46:20;35.77;;;32.37;;
2049;SDS011;8478;49.208;8.806;2024-01-11T09:48:48;37.17;;;33.23;;
2049;SDS011;8478;49.208;8.806;2024-01-11T09:51:15;35.40;;;31.47;;
2049;SDS011;8478;49.208;8.806;2024-01-11T09:53:41;36.63;;;32.90;;
2049;SDS011;8478;49.208;8.806;2024-01-11T09:56:08;32.50;;;29.40;;
2049;SDS011;8478;49.208;8.806;2024-01-11T09:58:35;32.63;;;29.23;;
2049;SDS011;8478;49.208;8.806;2024-01-11T10:01:07;32.97;;;29.43;;
2049;SDS011;8478;49.208;8.806;2024-01-11T10:03:35;32.33;;;29.10;;
2049;SDS011;8478;49.208;8.806;2024-01-11T10:06:02;34.03;;;30.47;;
2049;SDS011;8478;49.208;8.806;2024-01-11T10:08:28;31.53;;;28.20;;
2049;SDS011;8478;49.208;8.806;2024-01-11T10:10:55;31.13;;;27.93;;
2049;SDS011;8478;49.208;8.806;2024-01-11T10:13:27;31.63;;;28.30;;
2049;SDS011;8478;49.208;8.806;2024-01-11T10:16:15;30.33;;;27.37;;
2049;SDS011;8478;49.208;8.806;2024-01-11T10:18:40;30.80;;;27.63;;
2049;SDS011;8478;49.208;8.806;2024-01-11T10:21:09;31.43;;;28.13;;
2049;SDS011;8478;49.208;8.806;2024-01-11T10:23:37;29.13;;;25.70;;
2049;SDS011;8478;49.208;8.806;2024-01-11T10:26:06;32.97;;;28.40;;
2049;SDS011;8478;49.208;8.806;2024-01-11T10:28:35;28.10;;;25.40;;
2049;SDS011;8478;49.208;8.806;2024-01-11T10:31:04;30.97;;;27.67;;
2049;SDS011;8478;49.208;8.806;2024-01-11T10:33:33;31.50;;;28.40;;
2049;SDS011;8478;49.208;8.806;2024-01-11T10:35:59;34.10;;;30.50;;
2049;SDS011;8478;49.208;8.806;2024-01-11T10:38:25;33.23;;;29.80;;
2049;SDS011;8478;49.208;8.806;2024-01-11T10:40:52;32.83;;;29.30;;
2049;SDS011;8478;49.208;8.806;2024-01-11T10:43:21;33.47;;;30.27;;
2049;SDS011;8478;49.208;8.806;2024-01-11T10:45:50;34.50;;;30.77;;
2049;SDS011;8478;49.208;8.806;2024-01-11T10:48:22;32.47;;;28.87;;
2049;SDS011;8478;49.208;8.806;2024-01-11T10:50:52;32.27;;;28.93;;
2049;SDS011;8478;49.208;8.806;2024-01-11T10:56:03;33.77;;;30.27;;
2049;SDS011;8478;49.208;8.806;2024-01-11T10:58:32;31.80;;;28.40;;
2049;SDS011;8478;49.208;8.806;2024-01-11T11:01:00;32.03;;;28.73;;
2049;SDS011;8478;49.208;8.806;2024-01-11T11:03:27;32.07;;;28.77;;
2049;SDS011;8478;49.208;8.806;2024-01-11T11:05:56;32.40;;;29.00;;
2049;SDS011;8478;49.208;8.806;2024-01-11T11:08:24;31.93;;;28.70;;
2049;SDS011;8478;49.208;8.806;2024-01-11T11:10:58;34.17;;;30.33;;
2049;SDS011;8478;49.208;8.806;2024-01-11T11:13:26;33.20;;;29.83;;
2049;SDS011;8478;49.208;8.806;2024-01-11T11:15:53;30.97;;;27.67;;
2049;SDS011;8478;49.208;8.806;2024-01-11T11:18:19;31.03;;;28.03;;
2049;SDS011;8478;49.208;8.806;2024-01-11T11:20:46;29.20;;;26.30;;
2049;SDS011;8478;49.208;8.806;2024-01-11T11:23:13;31.57;;;28.23;;
2049;SDS011;8478;49.208;8.806;2024-01-11T11:25:42;31.30;;;28.10;;
2049;SDS011;8478;49.208;8.806;2024-01-11T11:28:11;30.03;;;26.90;;
2049;SDS011;8478;49.208;8.806;2024-01-11T11:30:38;30.63;;;27.40;;
2049;SDS011;8478;49.208;8.806;2024-01-11T11:33:09;30.43;;;27.37;;
2049;SDS011;8478;49.208;8.806;2024-01-11T11:35:36;31.03;;;28.13;;
2049;SDS011;8478;49.208;8.806;2024-01-11T11:38:02;32.47;;;28.97;;
2049;SDS011;8478;49.208;8.806;2024-01-11T11:40:37;31.20;;;28.07;;
2049;SDS011;8478;49.208;8.806;2024-01-11T11:43:08;32.83;;;29.30;;
2049;SDS011;8478;49.208;8.806;2024-01-11T11:45:34;32.20;;;28.80;;
2049;SDS011;8478;49.208;8.806;2024-01-11T11:48:00;30.43;;;27.13;;
2049;SDS011;8478;49.208;8.806;2024-01-11T11:50:26;30.27;;;27.27;;
2049;SDS011;8478;49.208;8.806;2024-01-11T11:52:54;29.80;;;26.83;;
2049;SDS011;8478;49.208;8.806;2024-01-11T11:55:25;28.10;;;25.40;;
2049;SDS011;8478;49.208;8.806;2024-01-11T11:57:51;27.17;;;24.37;;
2049;SDS011;8478;49.208;8.806;2024-01-11T12:00:20;30.50;;;27.40;;
2049;SDS011;8478;49.208;8.806;2024-01-11T12:02:49;29.80;;;26.73;;
2049;SDS011;8478;49.208;8.806;2024-01-11T12:05:18;28.07;;;25.27;;
2049;SDS011;8478;49.208;8.806;2024-01-11T12:07:44;31.07;;;27.97;;
2049;SDS011;8478;49.208;8.806;2024-01-11T12:10:10;29.47;;;26.37;;
2049;SDS011;8478;49.208;8.806;2024-01-11T12:12:37;29.27;;;26.13;;
2049;SDS011;8478;49.208;8.806;2024-01-11T12:15:04;28.23;;;25.60;;
2049;SDS011;8478;49.208;8.806;2024-01-11T12:17:30;31.00;;;27.93;;
2049;SDS011;8478;49.208;8.806;2024-01-11T12:19:56;29.60;;;26.67;;
2049;SDS011;8478;49.208;8.806;2024-01-11T12:22:21;28.77;;;25.70;;
2049;SDS011;8478;49.208;8.806;2024-01-11T12:24:48;31.53;;;27.10;;
2049;SDS011;8478;49.208;8.806;2024-01-11T12:27:14;29.23;;;26.10;;
2049;SDS011;8478;49.208;8.806;2024-01-11T12:29:40;29.00;;;26.20;;
2049;SDS011;8478;49.208;8.806;2024-01-11T12:32:06;27.90;;;24.90;;
2049;SDS011;8478;49.208;8.806;2024-01-11T12:34:31;27.87;;;25.10;;
2049;SDS011;8478;49.208;8.806;2024-01-11T12:36:58;31.93;;;28.37;;
2049;SDS011;8478;49.208;8.806;2024-01-11T12:39:26;30.03;;;26.80;;
2049;SDS011;8478;49.208;8.806;2024-01-11T12:41:53;29.10;;;26.00;;
2049;SDS011;8478;49.208;8.806;2024-01-11T12:44:21;27.63;;;24.60;;
2049;SDS011;8478;49.208;8.806;2024-01-11T12:46:48;29.13;;;25.87;;
2049;SDS011;8478;49.208;8.806;2024-01-11T12:49:14;27.43;;;24.57;;
2049;SDS011;8478;49.208;8.806;2024-01-11T12:51:40;31.43;;;28.30;;
2049;SDS011;8478;49.208;8.806;2024-01-11T12:54:15;30.47;;;27.57;;
2049;SDS011;8478;49.208;8.806;2024-01-11T12:56:44;31.00;;;27.87;;
2049;SDS011;8478;49.208;8.806;2024-01-11T12:59:10;27.53;;;24.70;;
2049;SDS011;8478;49.208;8.806;2024-01-11T13:01:37;28.30;;;25.50;;
2049;SDS011;8478;49.208;8.806;2024-01-11T13:04:04;27.83;;;25.03;;
2049;SDS011;8478;49.208;8.806;2024-01-11T13:06:30;30.63;;;27.60;;
2049;SDS011;8478;49.208;8.806;2024-01-11T13:08:57;25.93;;;23.43;;
2049;SDS011;8478;49.208;8.806;2024-01-11T13:11:23;28.33;;;25.37;;
2049;SDS011;8478;49.208;8.806;2024-01-11T13:13:50;28.07;;;25.30;;
2049;SDS011;8478;49.208;8.806;2024-01-11T13:16:16;26.33;;;23.67;;
2049;SDS011;8478;49.208;8.806;2024-01-11T13:18:44;27.37;;;24.67;;
2049;SDS011;8478;49.208;8.806;2024-01-11T13:21:10;28.27;;;25.40;;
2049;SDS011;8478;49.208;8.806;2024-01-11T13:23:37;26.77;;;24.13;;
2049;SDS011;8478;49.208;8.806;2024-01-11T13:26:04;26.93;;;24.30;;
2049;SDS011;8478;49.208;8.806;2024-01-11T13:28:30;28.63;;;25.50;;
2049;SDS011;8478;49.208;8.806;2024-01-11T13:30:55;26.57;;;23.80;;
2049;SDS011;8478;49.208;8.806;2024-01-11T13:33:22;27.10;;;24.30;;
2049;SDS011;8478;49.208;8.806;2024-01-11T13:35:49;26.87;;;24.37;;
2049;SDS011;8478;49.208;8.806;2024-01-11T13:38:15;26.70;;;23.83;;
2049;SDS011;8478;49.208;8.806;2024-01-11T13:40:41;27.97;;;25.17;;
2049;SDS011;8478;49.208;8.806;2024-01-11T13:43:08;26.77;;;24.10;;
2049;SDS011;8478;49.208;8.806;2024-01-11T13:45:34;25.37;;;22.60;;
2049;SDS011;8478;49.208;8.806;2024-01-11T13:48:04;24.60;;;22.10;;
2049;SDS011;8478;49.208;8.806;2024-01-11T13:50:30;25.67;;;23.10;;
2049;SDS011;8478;49.208;8.806;2024-01-11T13:52:56;26.63;;;24.03;;
2049;SDS011;8478;49.208;8.806;2024-01-11T13:55:22;25.07;;;22.43;;
2049;SDS011;8478;49.208;8.806;2024-01-11T13:57:50;24.77;;;22.37;;
2049;SDS011;8478;49.208;8.806;2024-01-11T14:00:17;23.37;;;21.17;;
2049;SDS011;8478;49.208;8.806;2024-01-11T14:02:44;24.30;;;21.90;;
2049;SDS011;8478;49.208;8.806;2024-01-11T14:05:11;22.33;;;20.13;;
2049;SDS011;8478;49.208;8.806;2024-01-11T14:07:42;24.40;;;22.17;;
2049;SDS011;8478;49.208;8.806;2024-01-11T14:10:09;21.83;;;19.53;;
2049;SDS011;8478;49.208;8.806;2024-01-11T14:12:35;22.10;;;19.90;;
2049;SDS011;8478;49.208;8.806;2024-01-11T14:15:05;22.47;;;20.27;;
2049;SDS011;8478;49.208;8.806;2024-01-11T14:17:33;22.97;;;20.67;;
2049;SDS011;8478;49.208;8.806;2024-01-11T14:20:01;23.63;;;19.93;;
2049;SDS011;8478;49.208;8.806;2024-01-11T14:22:28;24.47;;;22.03;;
2049;SDS011;8478;49.208;8.806;2024-01-11T14:24:54;24.73;;;22.30;;
2049;SDS011;8478;49.208;8.806;2024-01-11T14:27:20;26.27;;;23.47;;
2049;SDS011;8478;49.208;8.806;2024-01-11T14:29:46;27.17;;;24.33;;
2049;SDS011;8478;49.208;8.806;2024-01-11T14:32:13;25.40;;;22.80;;
2049;SDS011;8478;49.208;8.806;2024-01-11T14:34:41;28.73;;;25.67;;
2049;SDS011;8478;49.208;8.806;2024-01-11T14:37:09;27.17;;;24.53;;
2049;SDS011;8478;49.208;8.806;2024-01-11T14:39:35;31.17;;;27.27;;
2049;SDS011;8478;49.208;8.806;2024-01-11T14:42:01;27.33;;;24.60;;
2049;SDS011;8478;49.208;8.806;2024-01-11T14:44:27;28.23;;;25.33;;
2049;SDS011;8478;49.208;8.806;2024-01-11T14:46:52;29.23;;;26.30;;